sensor_id;sensor_type;location;lat;lon;timestamp;temperature;humidity
59857;DHT22;45733;52.668;6.860;2023-05-20T00:01:05;11.50;99.90
59857;DHT22;45733;52.668;6.860;2023-05-20T00:03:31;11.60;99.90
59857;DHT22;45733;52.668;6.860;2023-05-20T00:05:57;11.60;99.90
59857;DHT22;45733;52.668;6.860;2023-05-20T00:08:22;11.50;99.90
59857;DHT22;45733;52.668;6.860;2023-05-20T00:10:48;11.60;99.90
59857;DHT22;45733;52.668;6.860;2023-05-20T00:13:13;11.50;99.90
59857;DHT22;45733;52.668;6.860;2023-05-20T00:15:39;11.50;99.90
59857;DHT22;45733;52.668;6.860;2023-05-20T00:18:04;11.50;99.90
59857;DHT22;45733;52.668;6.860;2023-05-20T00:20:31;11.50;99.90
59857;DHT22;45733;52.668;6.860;2023-05-20T00:22:56;11.60;99.90
59857;DHT22;45733;52.668;6.860;2023-05-20T00:25:22;11.60;99.90
59857;DHT22;45733;52.668;6.860;2023-05-20T00:27:47;11.70;99.90
59857;DHT22;45733;52.668;6.860;2023-05-20T00:30:13;11.70;99.90
59857;DHT22;45733;52.668;6.860;2023-05-20T00:32:39;11.70;99.90
59857;DHT22;45733;52.668;6.860;2023-05-20T00:35:04;11.70;99.90
59857;DHT22;45733;52.668;6.860;2023-05-20T00:37:30;11.70;99.90
59857;DHT22;45733;52.668;6.860;2023-05-20T00:39:56;11.80;99.90
59857;DHT22;45733;52.668;6.860;2023-05-20T00:42:24;11.80;99.90
59857;DHT22;45733;52.668;6.860;2023-05-20T00:44:50;11.80;99.90
59857;DHT22;45733;52.668;6.860;2023-05-20T00:47:19;11.80;99.90
59857;DHT22;45733;52.668;6.860;2023-05-20T00:49:46;11.90;99.90
59857;DHT22;45733;52.668;6.860;2023-05-20T00:52:11;11.90;99.90
59857;DHT22;45733;52.668;6.860;2023-05-20T00:54:39;11.90;99.90
59857;DHT22;45733;52.668;6.860;2023-05-20T00:57:04;11.80;99.90
59857;DHT22;45733;52.668;6.860;2023-05-20T00:59:31;11.80;99.90
59857;DHT22;45733;52.668;6.860;2023-05-20T01:01:57;11.80;99.90
59857;DHT22;45733;52.668;6.860;2023-05-20T01:04:23;11.90;99.90
59857;DHT22;45733;52.668;6.860;2023-05-20T01:06:49;11.90;99.90
59857;DHT22;45733;52.668;6.860;2023-05-20T01:09:14;12.00;99.90
59857;DHT22;45733;52.668;6.860;2023-05-20T01:11:45;12.00;99.90
59857;DHT22;45733;52.668;6.860;2023-05-20T01:14:12;12.00;99.90
59857;DHT22;45733;52.668;6.860;2023-05-20T01:16:40;12.10;99.90
59857;DHT22;45733;52.668;6.860;2023-05-20T01:19:10;12.10;99.90
59857;DHT22;45733;52.668;6.860;2023-05-20T01:21:46;12.10;99.90
59857;DHT22;45733;52.668;6.860;2023-05-20T01:24:12;12.20;99.90
59857;DHT22;45733;52.668;6.860;2023-05-20T01:26:37;12.20;99.90
59857;DHT22;45733;52.668;6.860;2023-05-20T01:29:04;12.20;99.90
59857;DHT22;45733;52.668;6.860;2023-05-20T01:31:30;12.20;99.90
59857;DHT22;45733;52.668;6.860;2023-05-20T01:33:57;12.20;99.90
59857;DHT22;45733;52.668;6.860;2023-05-20T01:36:23;12.20;99.90
59857;DHT22;45733;52.668;6.860;2023-05-20T01:38:50;12.20;99.90
59857;DHT22;45733;52.668;6.860;2023-05-20T01:41:17;12.20;99.90
59857;DHT22;45733;52.668;6.860;2023-05-20T01:43:43;12.30;99.90
59857;DHT22;45733;52.668;6.860;2023-05-20T01:46:09;12.20;99.90
59857;DHT22;45733;52.668;6.860;2023-05-20T01:48:34;12.20;99.90
59857;DHT22;45733;52.668;6.860;2023-05-20T01:51:00;12.20;99.90
59857;DHT22;45733;52.668;6.860;2023-05-20T01:53:26;12.30;99.90
59857;DHT22;45733;52.668;6.860;2023-05-20T01:55:51;12.30;99.90
59857;DHT22;45733;52.668;6.860;2023-05-20T01:58:17;12.30;99.90
59857;DHT22;45733;52.668;6.860;2023-05-20T02:00:42;12.20;99.90
59857;DHT22;45733;52.668;6.860;2023-05-20T02:03:08;12.20;99.90
59857;DHT22;45733;52.668;6.860;2023-05-20T02:05:33;12.20;99.90
59857;DHT22;45733;52.668;6.860;2023-05-20T02:07:59;12.20;99.90
59857;DHT22;45733;52.668;6.860;2023-05-20T02:10:24;12.20;99.90
59857;DHT22;45733;52.668;6.860;2023-05-20T02:12:50;12.20;99.90
59857;DHT22;45733;52.668;6.860;2023-05-20T02:15:15;12.20;99.90
59857;DHT22;45733;52.668;6.860;2023-05-20T02:17:41;12.20;99.90
59857;DHT22;45733;52.668;6.860;2023-05-20T02:20:07;12.20;99.90
59857;DHT22;45733;52.668;6.860;2023-05-20T02:22:33;12.20;99.90
59857;DHT22;45733;52.668;6.860;2023-05-20T02:24:59;12.10;99.90
59857;DHT22;45733;52.668;6.860;2023-05-20T02:27:24;12.20;99.90
59857;DHT22;45733;52.668;6.860;2023-05-20T02:29:50;12.20;99.90
59857;DHT22;45733;52.668;6.860;2023-05-20T02:32:16;12.20;99.90
59857;DHT22;45733;52.668;6.860;2023-05-20T02:34:42;12.20;99.90
59857;DHT22;45733;52.668;6.860;2023-05-20T02:37:07;12.20;99.90
59857;DHT22;45733;52.668;6.860;2023-05-20T02:39:33;12.20;99.90
59857;DHT22;45733;52.668;6.860;2023-05-20T02:41:58;12.20;99.90
59857;DHT22;45733;52.668;6.860;2023-05-20T02:44:24;12.10;99.90
59857;DHT22;45733;52.668;6.860;2023-05-20T02:46:50;12.10;99.90
59857;DHT22;45733;52.668;6.860;2023-05-20T02:49:16;12.10;99.90
59857;DHT22;45733;52.668;6.860;2023-05-20T02:51:41;12.10;99.90
59857;DHT22;45733;52.668;6.860;2023-05-20T02:54:07;12.10;99.90
59857;DHT22;45733;52.668;6.860;2023-05-20T02:56:32;12.10;99.90
59857;DHT22;45733;52.668;6.860;2023-05-20T02:58:58;12.00;99.90
59857;DHT22;45733;52.668;6.860;2023-05-20T03:01:27;12.00;99.90
59857;DHT22;45733;52.668;6.860;2023-05-20T03:03:53;12.00;99.90
59857;DHT22;45733;52.668;6.860;2023-05-20T03:06:19;12.00;99.90
59857;DHT22;45733;52.668;6.860;2023-05-20T03:08:45;11.90;99.90
59857;DHT22;45733;52.668;6.860;2023-05-20T03:11:10;11.90;99.90
59857;DHT22;45733;52.668;6.860;2023-05-20T03:13:36;11.90;99.90
59857;DHT22;45733;52.668;6.860;2023-05-20T03:16:01;11.80;99.90
59857;DHT22;45733;52.668;6.860;2023-05-20T03:18:28;11.70;99.90
59857;DHT22;45733;52.668;6.860;2023-05-20T03:20:54;11.50;99.90
59857;DHT22;45733;52.668;6.860;2023-05-20T03:23:19;11.50;99.90
59857;DHT22;45733;52.668;6.860;2023-05-20T03:25:45;11.50;99.90
59857;DHT22;45733;52.668;6.860;2023-05-20T03:28:11;11.50;99.90
59857;DHT22;45733;52.668;6.860;2023-05-20T03:30:37;11.30;99.90
59857;DHT22;45733;52.668;6.860;2023-05-20T03:33:02;11.30;99.90
59857;DHT22;45733;52.668;6.860;2023-05-20T03:35:30;11.20;99.90
59857;DHT22;45733;52.668;6.860;2023-05-20T03:37:55;11.10;99.90
59857;DHT22;45733;52.668;6.860;2023-05-20T03:40:21;11.10;99.90
59857;DHT22;45733;52.668;6.860;2023-05-20T03:42:46;11.10;99.90
59857;DHT22;45733;52.668;6.860;2023-05-20T03:45:12;11.10;99.90
59857;DHT22;45733;52.668;6.860;2023-05-20T03:47:37;11.10;99.90
59857;DHT22;45733;52.668;6.860;2023-05-20T03:50:03;11.10;99.90
59857;DHT22;45733;52.668;6.860;2023-05-20T03:52:29;11.00;99.90
59857;DHT22;45733;52.668;6.860;2023-05-20T03:54:55;11.00;99.90
59857;DHT22;45733;52.668;6.860;2023-05-20T03:57:21;11.00;99.90
59857;DHT22;45733;52.668;6.860;2023-05-20T03:59:46;11.00;99.90
59857;DHT22;45733;52.668;6.860;2023-05-20T04:02:12;11.10;99.90
59857;DHT22;45733;52.668;6.860;2023-05-20T04:04:38;11.00;99.90
59857;DHT22;45733;52.668;6.860;2023-05-20T04:07:03;11.00;99.90
59857;DHT22;45733;52.668;6.860;2023-05-20T04:09:29;11.00;99.90
59857;DHT22;45733;52.668;6.860;2023-05-20T04:11:55;10.90;99.90
59857;DHT22;45733;52.668;6.860;2023-05-20T04:14:21;10.90;99.90
59857;DHT22;45733;52.668;6.860;2023-05-20T04:16:46;10.90;99.90
59857;DHT22;45733;52.668;6.860;2023-05-20T04:19:12;11.00;99.90
59857;DHT22;45733;52.668;6.860;2023-05-20T04:21:38;11.00;99.90
59857;DHT22;45733;52.668;6.860;2023-05-20T04:24:03;11.00;99.90
59857;DHT22;45733;52.668;6.860;2023-05-20T04:26:29;11.00;99.90
59857;DHT22;45733;52.668;6.860;2023-05-20T04:28:55;11.10;99.90
59857;DHT22;45733;52.668;6.860;2023-05-20T04:31:23;11.10;99.90
59857;DHT22;45733;52.668;6.860;2023-05-20T04:33:54;11.10;99.90
59857;DHT22;45733;52.668;6.860;2023-05-20T04:36:19;11.20;99.90
59857;DHT22;45733;52.668;6.860;2023-05-20T04:38:46;11.10;99.90
59857;DHT22;45733;52.668;6.860;2023-05-20T04:41:12;11.30;99.90
59857;DHT22;45733;52.668;6.860;2023-05-20T04:43:38;11.90;99.90
59857;DHT22;45733;52.668;6.860;2023-05-20T04:46:04;13.20;99.90
59857;DHT22;45733;52.668;6.860;2023-05-20T04:48:30;13.00;99.90
59857;DHT22;45733;52.668;6.860;2023-05-20T04:50:56;14.80;99.90
59857;DHT22;45733;52.668;6.860;2023-05-20T04:53:22;15.90;99.90
59857;DHT22;45733;52.668;6.860;2023-05-20T04:55:47;16.70;99.90
59857;DHT22;45733;52.668;6.860;2023-05-20T04:58:14;17.30;99.90
59857;DHT22;45733;52.668;6.860;2023-05-20T05:00:41;17.70;99.90
59857;DHT22;45733;52.668;6.860;2023-05-20T05:03:07;18.10;99.90
59857;DHT22;45733;52.668;6.860;2023-05-20T05:05:33;18.80;99.90
59857;DHT22;45733;52.668;6.860;2023-05-20T05:07:59;19.70;99.90
59857;DHT22;45733;52.668;6.860;2023-05-20T05:10:25;20.00;99.90
59857;DHT22;45733;52.668;6.860;2023-05-20T05:12:50;20.00;99.90
59857;DHT22;45733;52.668;6.860;2023-05-20T05:15:16;18.70;99.90
59857;DHT22;45733;52.668;6.860;2023-05-20T05:17:42;20.00;99.90
59857;DHT22;45733;52.668;6.860;2023-05-20T05:20:08;20.10;99.90
59857;DHT22;45733;52.668;6.860;2023-05-20T05:22:33;20.70;99.90
59857;DHT22;45733;52.668;6.860;2023-05-20T05:25:02;21.10;99.90
59857;DHT22;45733;52.668;6.860;2023-05-20T05:27:27;20.50;99.90
59857;DHT22;45733;52.668;6.860;2023-05-20T05:29:53;20.30;99.90
59857;DHT22;45733;52.668;6.860;2023-05-20T05:32:18;20.10;99.90
59857;DHT22;45733;52.668;6.860;2023-05-20T05:34:44;20.60;99.90
59857;DHT22;45733;52.668;6.860;2023-05-20T05:37:09;20.00;99.90
59857;DHT22;45733;52.668;6.860;2023-05-20T05:39:35;20.00;99.90
59857;DHT22;45733;52.668;6.860;2023-05-20T05:42:02;20.50;99.90
59857;DHT22;45733;52.668;6.860;2023-05-20T05:44:28;20.20;99.90
59857;DHT22;45733;52.668;6.860;2023-05-20T05:46:53;17.50;99.90
59857;DHT22;45733;52.668;6.860;2023-05-20T05:49:19;17.30;99.90
59857;DHT22;45733;52.668;6.860;2023-05-20T05:51:44;16.80;99.90
59857;DHT22;45733;52.668;6.860;2023-05-20T05:54:10;15.90;99.90
59857;DHT22;45733;52.668;6.860;2023-05-20T05:56:35;16.00;99.90
59857;DHT22;45733;52.668;6.860;2023-05-20T05:59:01;16.00;99.90
59857;DHT22;45733;52.668;6.860;2023-05-20T06:01:27;15.80;99.90
59857;DHT22;45733;52.668;6.860;2023-05-20T06:03:52;16.40;99.90
59857;DHT22;45733;52.668;6.860;2023-05-20T06:06:18;16.70;99.90
59857;DHT22;45733;52.668;6.860;2023-05-20T06:08:44;15.70;99.90
59857;DHT22;45733;52.668;6.860;2023-05-20T06:11:09;16.00;99.90
59857;DHT22;45733;52.668;6.860;2023-05-20T06:13:35;15.80;99.90
59857;DHT22;45733;52.668;6.860;2023-05-20T06:16:00;16.10;99.90
59857;DHT22;45733;52.668;6.860;2023-05-20T06:18:26;16.50;99.90
59857;DHT22;45733;52.668;6.860;2023-05-20T06:20:58;16.40;99.90
59857;DHT22;45733;52.668;6.860;2023-05-20T06:23:24;16.60;99.90
59857;DHT22;45733;52.668;6.860;2023-05-20T06:25:50;16.30;99.90
59857;DHT22;45733;52.668;6.860;2023-05-20T06:28:16;15.90;99.90
59857;DHT22;45733;52.668;6.860;2023-05-20T06:30:41;16.10;99.90
59857;DHT22;45733;52.668;6.860;2023-05-20T06:33:07;16.30;99.90
59857;DHT22;45733;52.668;6.860;2023-05-20T06:35:32;16.30;99.90
59857;DHT22;45733;52.668;6.860;2023-05-20T06:38:01;17.00;99.90
59857;DHT22;45733;52.668;6.860;2023-05-20T06:40:27;17.40;99.90
59857;DHT22;45733;52.668;6.860;2023-05-20T06:42:52;16.70;99.90
59857;DHT22;45733;52.668;6.860;2023-05-20T06:45:18;17.00;99.90
59857;DHT22;45733;52.668;6.860;2023-05-20T06:47:44;17.60;99.90
59857;DHT22;45733;52.668;6.860;2023-05-20T06:50:10;17.40;99.90
59857;DHT22;45733;52.668;6.860;2023-05-20T06:52:36;17.80;99.90
59857;DHT22;45733;52.668;6.860;2023-05-20T06:55:02;17.90;99.90
59857;DHT22;45733;52.668;6.860;2023-05-20T06:57:28;17.40;99.90
59857;DHT22;45733;52.668;6.860;2023-05-20T06:59:53;18.10;99.90
59857;DHT22;45733;52.668;6.860;2023-05-20T07:02:20;17.70;99.90
59857;DHT22;45733;52.668;6.860;2023-05-20T07:04:45;18.20;99.90
59857;DHT22;45733;52.668;6.860;2023-05-20T07:07:11;18.60;99.90
59857;DHT22;45733;52.668;6.860;2023-05-20T07:09:36;18.80;99.90
59857;DHT22;45733;52.668;6.860;2023-05-20T07:12:02;18.00;99.90
59857;DHT22;45733;52.668;6.860;2023-05-20T07:14:28;18.00;99.90
59857;DHT22;45733;52.668;6.860;2023-05-20T07:16:53;17.80;99.90
59857;DHT22;45733;52.668;6.860;2023-05-20T07:19:19;18.20;99.90
59857;DHT22;45733;52.668;6.860;2023-05-20T07:21:47;18.00;99.90
59857;DHT22;45733;52.668;6.860;2023-05-20T07:24:14;17.80;99.90
59857;DHT22;45733;52.668;6.860;2023-05-20T07:26:40;18.20;99.90
59857;DHT22;45733;52.668;6.860;2023-05-20T07:29:06;18.20;99.90
59857;DHT22;45733;52.668;6.860;2023-05-20T07:31:31;18.60;99.90
59857;DHT22;45733;52.668;6.860;2023-05-20T07:34:00;18.60;99.90
59857;DHT22;45733;52.668;6.860;2023-05-20T07:36:26;18.10;99.90
59857;DHT22;45733;52.668;6.860;2023-05-20T07:38:52;17.90;99.90
59857;DHT22;45733;52.668;6.860;2023-05-20T07:41:18;17.80;99.90
59857;DHT22;45733;52.668;6.860;2023-05-20T07:43:44;17.30;99.90
59857;DHT22;45733;52.668;6.860;2023-05-20T07:46:10;17.90;99.90
59857;DHT22;45733;52.668;6.860;2023-05-20T07:48:35;18.50;99.90
59857;DHT22;45733;52.668;6.860;2023-05-20T07:51:01;18.00;99.90
59857;DHT22;45733;52.668;6.860;2023-05-20T07:53:27;17.90;99.90
59857;DHT22;45733;52.668;6.860;2023-05-20T07:55:52;18.70;99.90
59857;DHT22;45733;52.668;6.860;2023-05-20T07:58:18;18.80;99.90
59857;DHT22;45733;52.668;6.860;2023-05-20T08:00:43;18.40;99.90
59857;DHT22;45733;52.668;6.860;2023-05-20T08:03:09;18.30;99.90
59857;DHT22;45733;52.668;6.860;2023-05-20T08:05:36;18.90;99.90
59857;DHT22;45733;52.668;6.860;2023-05-20T08:08:02;19.10;99.90
59857;DHT22;45733;52.668;6.860;2023-05-20T08:10:28;19.00;99.90
59857;DHT22;45733;52.668;6.860;2023-05-20T08:12:53;19.00;99.90
59857;DHT22;45733;52.668;6.860;2023-05-20T08:15:19;19.20;99.90
59857;DHT22;45733;52.668;6.860;2023-05-20T08:17:47;19.20;99.90
59857;DHT22;45733;52.668;6.860;2023-05-20T08:20:13;18.90;99.90
59857;DHT22;45733;52.668;6.860;2023-05-20T08:22:39;19.10;99.90
59857;DHT22;45733;52.668;6.860;2023-05-20T08:25:26;19.60;99.90
59857;DHT22;45733;52.668;6.860;2023-05-20T08:27:54;19.20;99.90
59857;DHT22;45733;52.668;6.860;2023-05-20T08:30:20;18.70;99.90
59857;DHT22;45733;52.668;6.860;2023-05-20T08:32:45;19.20;99.90
59857;DHT22;45733;52.668;6.860;2023-05-20T08:35:12;19.50;99.90
59857;DHT22;45733;52.668;6.860;2023-05-20T08:37:38;19.50;99.90
59857;DHT22;45733;52.668;6.860;2023-05-20T08:40:04;19.10;99.90
59857;DHT22;45733;52.668;6.860;2023-05-20T08:42:29;19.50;99.90
59857;DHT22;45733;52.668;6.860;2023-05-20T08:44:55;19.70;99.90
59857;DHT22;45733;52.668;6.860;2023-05-20T08:47:22;19.40;99.90
59857;DHT22;45733;52.668;6.860;2023-05-20T08:49:47;19.70;99.90
59857;DHT22;45733;52.668;6.860;2023-05-20T08:52:13;19.60;99.90
59857;DHT22;45733;52.668;6.860;2023-05-20T08:54:44;20.20;99.90
59857;DHT22;45733;52.668;6.860;2023-05-20T08:57:10;19.90;99.90
59857;DHT22;45733;52.668;6.860;2023-05-20T08:59:39;19.20;99.90
59857;DHT22;45733;52.668;6.860;2023-05-20T09:02:05;19.10;99.90
59857;DHT22;45733;52.668;6.860;2023-05-20T09:04:31;19.00;99.90
59857;DHT22;45733;52.668;6.860;2023-05-20T09:06:57;19.50;99.90
59857;DHT22;45733;52.668;6.860;2023-05-20T09:09:22;18.30;99.90
59857;DHT22;45733;52.668;6.860;2023-05-20T09:11:48;18.70;99.90
59857;DHT22;45733;52.668;6.860;2023-05-20T09:14:13;19.20;99.90
59857;DHT22;45733;52.668;6.860;2023-05-20T09:16:39;19.20;99.90
59857;DHT22;45733;52.668;6.860;2023-05-20T09:19:05;19.10;99.90
59857;DHT22;45733;52.668;6.860;2023-05-20T09:21:31;18.40;99.90
59857;DHT22;45733;52.668;6.860;2023-05-20T09:24:00;18.60;99.90
59857;DHT22;45733;52.668;6.860;2023-05-20T09:26:26;18.80;99.90
59857;DHT22;45733;52.668;6.860;2023-05-20T09:28:55;18.70;99.90
59857;DHT22;45733;52.668;6.860;2023-05-20T09:31:20;18.90;99.90
59857;DHT22;45733;52.668;6.860;2023-05-20T09:33:48;18.50;99.90
59857;DHT22;45733;52.668;6.860;2023-05-20T09:36:13;18.50;99.90
59857;DHT22;45733;52.668;6.860;2023-05-20T09:38:39;18.40;99.90
59857;DHT22;45733;52.668;6.860;2023-05-20T09:41:06;18.40;99.90
59857;DHT22;45733;52.668;6.860;2023-05-20T09:43:33;19.10;99.90
59857;DHT22;45733;52.668;6.860;2023-05-20T09:45:59;19.70;99.90
59857;DHT22;45733;52.668;6.860;2023-05-20T09:48:26;19.90;99.90
59857;DHT22;45733;52.668;6.860;2023-05-20T09:50:52;20.20;99.90
59857;DHT22;45733;52.668;6.860;2023-05-20T09:53:18;20.30;99.90
59857;DHT22;45733;52.668;6.860;2023-05-20T09:55:44;19.90;99.90
59857;DHT22;45733;52.668;6.860;2023-05-20T09:58:10;20.00;99.90
59857;DHT22;45733;52.668;6.860;2023-05-20T10:00:37;19.90;99.90
59857;DHT22;45733;52.668;6.860;2023-05-20T10:03:02;20.10;99.90
59857;DHT22;45733;52.668;6.860;2023-05-20T10:05:29;20.10;99.80
59857;DHT22;45733;52.668;6.860;2023-05-20T10:13:25;19.90;99.90
59857;DHT22;45733;52.668;6.860;2023-05-20T10:20:59;19.20;98.90
59857;DHT22;45733;52.668;6.860;2023-05-20T10:23:28;19.30;99.90
59857;DHT22;45733;52.668;6.860;2023-05-20T10:25:55;19.80;99.90
59857;DHT22;45733;52.668;6.860;2023-05-20T10:28:31;19.60;98.60
59857;DHT22;45733;52.668;6.860;2023-05-20T10:30:57;19.70;99.40
59857;DHT22;45733;52.668;6.860;2023-05-20T10:33:24;19.40;99.10
59857;DHT22;45733;52.668;6.860;2023-05-20T10:35:49;19.80;99.90
59857;DHT22;45733;52.668;6.860;2023-05-20T10:38:16;19.80;99.30
59857;DHT22;45733;52.668;6.860;2023-05-20T10:40:42;19.50;99.90
59857;DHT22;45733;52.668;6.860;2023-05-20T10:43:24;19.70;99.30
59857;DHT22;45733;52.668;6.860;2023-05-20T10:45:51;19.50;99.40
59857;DHT22;45733;52.668;6.860;2023-05-20T10:48:24;19.20;99.90
59857;DHT22;45733;52.668;6.860;2023-05-20T10:50:53;18.80;99.80
59857;DHT22;45733;52.668;6.860;2023-05-20T10:53:20;18.90;99.90
59857;DHT22;45733;52.668;6.860;2023-05-20T10:55:50;19.00;99.90
59857;DHT22;45733;52.668;6.860;2023-05-20T10:58:16;19.50;99.90
59857;DHT22;45733;52.668;6.860;2023-05-20T11:00:42;19.00;99.90
59857;DHT22;45733;52.668;6.860;2023-05-20T11:03:08;19.90;99.90
59857;DHT22;45733;52.668;6.860;2023-05-20T11:05:33;21.10;99.90
59857;DHT22;45733;52.668;6.860;2023-05-20T11:08:00;20.20;99.90
59857;DHT22;45733;52.668;6.860;2023-05-20T11:10:26;19.40;99.90
59857;DHT22;45733;52.668;6.860;2023-05-20T11:12:51;19.20;99.20
59857;DHT22;45733;52.668;6.860;2023-05-20T11:15:18;20.10;99.90
59857;DHT22;45733;52.668;6.860;2023-05-20T11:17:56;20.10;99.90
59857;DHT22;45733;52.668;6.860;2023-05-20T11:20:24;20.30;99.90
59857;DHT22;45733;52.668;6.860;2023-05-20T11:22:50;19.80;99.90
59857;DHT22;45733;52.668;6.860;2023-05-20T11:25:16;20.50;99.90
59857;DHT22;45733;52.668;6.860;2023-05-20T11:27:42;20.70;99.20
59857;DHT22;45733;52.668;6.860;2023-05-20T11:30:08;20.10;99.10
59857;DHT22;45733;52.668;6.860;2023-05-20T11:32:35;20.00;99.90
59857;DHT22;45733;52.668;6.860;2023-05-20T11:35:01;20.60;99.90
59857;DHT22;45733;52.668;6.860;2023-05-20T11:37:27;20.40;99.70
59857;DHT22;45733;52.668;6.860;2023-05-20T11:40:03;20.20;99.00
59857;DHT22;45733;52.668;6.860;2023-05-20T11:42:32;19.70;96.20
59857;DHT22;45733;52.668;6.860;2023-05-20T11:45:00;20.70;99.90
59857;DHT22;45733;52.668;6.860;2023-05-20T11:47:26;21.10;99.20
59857;DHT22;45733;52.668;6.860;2023-05-20T11:49:52;19.90;97.20
59857;DHT22;45733;52.668;6.860;2023-05-20T11:52:17;19.10;98.10
59857;DHT22;45733;52.668;6.860;2023-05-20T11:54:43;19.70;98.20
59857;DHT22;45733;52.668;6.860;2023-05-20T11:57:10;20.80;99.90
59857;DHT22;45733;52.668;6.860;2023-05-20T11:59:35;20.80;99.20
59857;DHT22;45733;52.668;6.860;2023-05-20T12:02:01;20.80;98.30
59857;DHT22;45733;52.668;6.860;2023-05-20T12:04:27;20.80;96.40
59857;DHT22;45733;52.668;6.860;2023-05-20T12:06:52;21.30;99.90
59857;DHT22;45733;52.668;6.860;2023-05-20T12:09:18;21.30;97.50
59857;DHT22;45733;52.668;6.860;2023-05-20T12:11:44;20.40;96.40
59857;DHT22;45733;52.668;6.860;2023-05-20T12:14:10;19.60;98.50
59857;DHT22;45733;52.668;6.860;2023-05-20T12:16:36;20.00;98.90
59857;DHT22;45733;52.668;6.860;2023-05-20T12:19:01;20.40;99.90
59857;DHT22;45733;52.668;6.860;2023-05-20T12:21:27;19.70;98.50
59857;DHT22;45733;52.668;6.860;2023-05-20T12:23:53;19.30;99.60
59857;DHT22;45733;52.668;6.860;2023-05-20T12:26:26;19.70;99.20
59857;DHT22;45733;52.668;6.860;2023-05-20T12:28:54;20.00;97.10
59857;DHT22;45733;52.668;6.860;2023-05-20T12:31:20;20.70;97.70
59857;DHT22;45733;52.668;6.860;2023-05-20T12:33:46;20.30;96.00
59857;DHT22;45733;52.668;6.860;2023-05-20T12:36:11;20.10;98.10
59857;DHT22;45733;52.668;6.860;2023-05-20T12:38:37;20.10;98.60
59857;DHT22;45733;52.668;6.860;2023-05-20T12:41:03;19.50;96.20
59857;DHT22;45733;52.668;6.860;2023-05-20T12:43:28;19.10;97.00
59857;DHT22;45733;52.668;6.860;2023-05-20T12:45:54;19.00;98.30
59857;DHT22;45733;52.668;6.860;2023-05-20T12:48:20;19.80;98.60
59857;DHT22;45733;52.668;6.860;2023-05-20T12:50:45;19.80;99.40
59857;DHT22;45733;52.668;6.860;2023-05-20T12:53:11;19.80;99.90
59857;DHT22;45733;52.668;6.860;2023-05-20T12:55:36;19.70;96.90
59857;DHT22;45733;52.668;6.860;2023-05-20T12:58:03;19.60;96.90
59857;DHT22;45733;52.668;6.860;2023-05-20T13:00:28;19.80;97.50
59857;DHT22;45733;52.668;6.860;2023-05-20T13:02:54;20.20;96.20
59857;DHT22;45733;52.668;6.860;2023-05-20T13:05:19;20.30;96.00
59857;DHT22;45733;52.668;6.860;2023-05-20T13:07:45;20.70;99.90
59857;DHT22;45733;52.668;6.860;2023-05-20T13:10:11;20.50;95.50
59857;DHT22;45733;52.668;6.860;2023-05-20T13:12:36;20.10;97.00
59857;DHT22;45733;52.668;6.860;2023-05-20T13:15:02;19.70;97.40
59857;DHT22;45733;52.668;6.860;2023-05-20T13:17:28;19.90;97.00
59857;DHT22;45733;52.668;6.860;2023-05-20T13:19:54;20.40;96.50
59857;DHT22;45733;52.668;6.860;2023-05-20T13:22:20;21.00;97.40
59857;DHT22;45733;52.668;6.860;2023-05-20T13:24:46;20.80;96.80
59857;DHT22;45733;52.668;6.860;2023-05-20T13:27:11;20.30;98.70
59857;DHT22;45733;52.668;6.860;2023-05-20T13:29:37;20.20;96.70
59857;DHT22;45733;52.668;6.860;2023-05-20T13:32:02;21.90;99.80
59857;DHT22;45733;52.668;6.860;2023-05-20T13:34:28;21.70;98.40
59857;DHT22;45733;52.668;6.860;2023-05-20T13:36:54;21.10;96.50
59857;DHT22;45733;52.668;6.860;2023-05-20T13:39:20;21.00;96.50
59857;DHT22;45733;52.668;6.860;2023-05-20T13:41:45;20.50;95.30
59857;DHT22;45733;52.668;6.860;2023-05-20T13:44:11;20.60;98.10
59857;DHT22;45733;52.668;6.860;2023-05-20T13:46:36;20.60;98.20
59857;DHT22;45733;52.668;6.860;2023-05-20T13:49:02;20.20;95.60
59857;DHT22;45733;52.668;6.860;2023-05-20T13:51:29;20.00;96.70
59857;DHT22;45733;52.668;6.860;2023-05-20T13:53:55;19.80;96.50
59857;DHT22;45733;52.668;6.860;2023-05-20T13:56:20;19.60;97.90
59857;DHT22;45733;52.668;6.860;2023-05-20T13:58:46;19.50;97.60
59857;DHT22;45733;52.668;6.860;2023-05-20T14:01:12;19.60;97.80
59857;DHT22;45733;52.668;6.860;2023-05-20T14:03:37;19.40;96.30
59857;DHT22;45733;52.668;6.860;2023-05-20T14:06:05;19.40;95.80
59857;DHT22;45733;52.668;6.860;2023-05-20T14:08:30;19.90;96.70
59857;DHT22;45733;52.668;6.860;2023-05-20T14:10:56;19.80;98.30
59857;DHT22;45733;52.668;6.860;2023-05-20T14:13:21;19.60;99.90
59857;DHT22;45733;52.668;6.860;2023-05-20T14:15:47;19.40;97.80
59857;DHT22;45733;52.668;6.860;2023-05-20T14:18:15;19.20;98.60
59857;DHT22;45733;52.668;6.860;2023-05-20T14:20:40;19.10;97.50
59857;DHT22;45733;52.668;6.860;2023-05-20T14:23:06;19.00;97.40
59857;DHT22;45733;52.668;6.860;2023-05-20T14:25:32;19.00;97.20
59857;DHT22;45733;52.668;6.860;2023-05-20T14:27:57;19.10;97.90
59857;DHT22;45733;52.668;6.860;2023-05-20T14:30:23;19.00;97.00
59857;DHT22;45733;52.668;6.860;2023-05-20T14:32:49;19.00;97.90
59857;DHT22;45733;52.668;6.860;2023-05-20T14:35:15;19.00;99.60
59857;DHT22;45733;52.668;6.860;2023-05-20T14:37:41;19.20;99.60
59857;DHT22;45733;52.668;6.860;2023-05-20T14:40:06;19.30;98.70
59857;DHT22;45733;52.668;6.860;2023-05-20T14:42:32;19.40;99.90
59857;DHT22;45733;52.668;6.860;2023-05-20T14:44:58;19.40;98.70
59857;DHT22;45733;52.668;6.860;2023-05-20T14:47:23;19.10;97.60
59857;DHT22;45733;52.668;6.860;2023-05-20T14:49:50;19.20;98.10
59857;DHT22;45733;52.668;6.860;2023-05-20T14:52:15;19.20;98.60
59857;DHT22;45733;52.668;6.860;2023-05-20T14:54:41;19.30;99.90
59857;DHT22;45733;52.668;6.860;2023-05-20T14:57:07;19.30;99.90
59857;DHT22;45733;52.668;6.860;2023-05-20T14:59:32;19.20;99.90
59857;DHT22;45733;52.668;6.860;2023-05-20T15:01:58;19.30;99.90
59857;DHT22;45733;52.668;6.860;2023-05-20T15:04:24;19.20;99.70
59857;DHT22;45733;52.668;6.860;2023-05-20T15:06:49;19.30;99.90
59857;DHT22;45733;52.668;6.860;2023-05-20T15:09:15;19.90;98.80
59857;DHT22;45733;52.668;6.860;2023-05-20T15:11:41;19.60;99.90
59857;DHT22;45733;52.668;6.860;2023-05-20T15:14:06;19.50;99.70
59857;DHT22;45733;52.668;6.860;2023-05-20T15:16:32;19.40;98.90
59857;DHT22;45733;52.668;6.860;2023-05-20T15:18:57;19.40;99.90
59857;DHT22;45733;52.668;6.860;2023-05-20T15:21:23;19.40;99.90
59857;DHT22;45733;52.668;6.860;2023-05-20T15:23:48;19.10;99.90
59857;DHT22;45733;52.668;6.860;2023-05-20T15:26:14;18.80;99.90
59857;DHT22;45733;52.668;6.860;2023-05-20T15:28:40;18.60;99.90
59857;DHT22;45733;52.668;6.860;2023-05-20T15:31:05;18.50;99.90
59857;DHT22;45733;52.668;6.860;2023-05-20T15:33:31;18.50;99.90